createdAt,value
2019-04-04T00:00:31.697Z,3.90
2019-04-04T00:03:01.433Z,3.80
2019-04-04T00:05:31.078Z,3.90
2019-04-04T00:08:02.680Z,3.90
2019-04-04T00:10:32.849Z,3.80
2019-04-04T00:13:03.922Z,3.80
2019-04-04T00:15:34.599Z,3.70
2019-04-04T00:18:04.331Z,3.80
2019-04-04T00:20:34.163Z,3.70
2019-04-04T00:23:05.021Z,3.80
2019-04-04T00:25:35.353Z,3.80
2019-04-04T00:28:05.034Z,3.70
2019-04-04T00:30:34.771Z,3.70
2019-04-04T00:33:04.530Z,3.70
2019-04-04T00:35:34.187Z,3.70
2019-04-04T00:38:06.693Z,3.60
2019-04-04T00:40:35.124Z,3.60
2019-04-04T00:43:05.882Z,3.60
2019-04-04T00:45:35.584Z,3.50
2019-04-04T00:48:05.352Z,3.50
2019-04-04T00:50:36.750Z,3.50
2019-04-04T00:53:06.409Z,3.50
2019-04-04T00:55:36.226Z,3.50
2019-04-04T00:58:05.913Z,3.50
2019-04-04T01:00:35.945Z,3.50
2019-04-04T01:03:05.567Z,3.50
2019-04-04T01:05:35.220Z,3.50
2019-04-04T01:08:06.648Z,3.50
2019-04-04T01:10:36.230Z,3.50
2019-04-04T01:13:05.842Z,3.50
2019-04-04T01:15:35.577Z,3.50
2019-04-04T01:18:17.182Z,3.50
2019-04-04T01:20:46.862Z,3.50
2019-04-04T01:23:17.050Z,3.60
2019-04-04T01:25:46.658Z,3.60
2019-04-04T01:28:16.314Z,3.50
2019-04-04T01:30:46.086Z,3.50
2019-04-04T01:33:15.742Z,3.50
2019-04-04T01:35:45.344Z,3.60
2019-04-04T01:38:15.037Z,3.50
2019-04-04T01:40:45.149Z,3.50
2019-04-04T01:43:14.778Z,3.50
2019-04-04T01:45:44.945Z,3.50
2019-04-04T01:48:14.707Z,3.40
2019-04-04T01:50:44.330Z,3.30
2019-04-04T01:53:14.005Z,3.30
2019-04-04T01:55:43.618Z,3.30
2019-04-04T01:58:13.223Z,3.30
2019-04-04T02:00:45.641Z,3.30
2019-04-04T02:03:14.169Z,3.30
2019-04-04T02:05:43.797Z,3.30
2019-04-04T02:08:13.555Z,3.30
2019-04-04T02:10:43.443Z,3.30
2019-04-04T02:13:13.110Z,3.30
2019-04-04T02:15:44.597Z,3.30
2019-04-04T02:18:14.074Z,3.40
2019-04-04T02:20:43.725Z,3.30
2019-04-04T02:23:13.346Z,3.30
2019-04-04T02:25:43.001Z,3.30
2019-04-04T02:28:12.644Z,3.20
2019-04-04T02:30:42.357Z,3.20
2019-04-04T02:33:12.019Z,3.20
2019-04-04T02:35:43.723Z,3.20
2019-04-04T02:38:13.017Z,3.20
2019-04-04T02:40:42.723Z,3.20
2019-04-04T02:43:12.366Z,3.20
2019-04-04T02:45:42.089Z,3.20
2019-04-04T02:48:13.085Z,3.20
2019-04-04T02:50:42.692Z,3.20
2019-04-04T02:53:12.603Z,3.20
2019-04-04T02:55:42.295Z,3.10
2019-04-04T02:58:15.113Z,3.10
2019-04-04T03:00:43.234Z,3.10
2019-04-04T03:03:16.205Z,3.10
2019-04-04T03:05:50.820Z,3.10
2019-04-04T03:08:18.377Z,3.10
2019-04-04T03:10:49.396Z,3.10
2019-04-04T03:13:19.395Z,3.10
2019-04-04T03:15:50.204Z,3.10
2019-04-04T03:18:21.161Z,3.10
2019-04-04T03:20:50.847Z,3.10
2019-04-04T03:23:20.490Z,3.10
2019-04-04T03:25:50.194Z,3.10
2019-04-04T03:28:19.885Z,3.10
2019-04-04T03:31:00.627Z,3.10
2019-04-04T03:33:29.194Z,3.10
2019-04-04T03:35:59.877Z,3.10
2019-04-04T03:38:26.828Z,3.10
2019-04-04T03:40:59.779Z,3.10
2019-04-04T03:43:29.754Z,3.20
2019-04-04T03:46:01.327Z,3.20
2019-04-04T03:48:30.889Z,3.20
2019-04-04T03:51:03.461Z,3.10
2019-04-04T03:53:31.967Z,3.10
2019-04-04T03:56:01.869Z,3.10
2019-04-04T03:58:32.078Z,3.10
2019-04-04T04:01:01.703Z,3.10
2019-04-04T04:03:31.407Z,3.00
2019-04-04T04:06:01.121Z,3.00
2019-04-04T04:08:30.919Z,3.00
2019-04-04T04:11:04.824Z,2.90
2019-04-04T04:13:32.990Z,2.90
2019-04-04T04:16:03.842Z,2.90
2019-04-04T04:18:33.652Z,2.90
2019-04-04T04:21:03.353Z,3.00
2019-04-04T04:23:32.998Z,3.00
2019-04-04T04:26:02.622Z,3.00
2019-04-04T04:28:32.326Z,3.00
2019-04-04T04:31:02.626Z,2.90
2019-04-04T04:33:32.419Z,2.90
2019-04-04T04:36:02.067Z,2.90
2019-04-04T04:38:31.761Z,2.90
2019-04-04T04:41:01.474Z,2.80
2019-04-04T04:43:33.510Z,2.80
2019-04-04T04:46:02.654Z,2.90
2019-04-04T04:48:32.260Z,2.90
2019-04-04T04:51:01.878Z,2.90
2019-04-04T04:53:31.482Z,2.90
2019-04-04T04:56:01.446Z,2.90
2019-04-04T04:58:31.073Z,2.90
2019-04-04T05:01:00.899Z,2.90
2019-04-04T05:03:30.522Z,3.00
2019-04-04T05:06:02.317Z,3.00
2019-04-04T05:08:31.589Z,3.00
2019-04-04T05:11:01.226Z,3.00
2019-04-04T05:13:30.885Z,3.00
2019-04-04T05:16:03.959Z,3.00
2019-04-04T05:18:31.836Z,3.00
2019-04-04T05:21:02.478Z,3.00
2019-04-04T05:23:32.338Z,3.00
2019-04-04T05:26:03.061Z,3.00
2019-04-04T05:28:33.014Z,3.00
2019-04-04T05:31:02.630Z,3.00
2019-04-04T05:33:32.274Z,3.10
2019-04-04T05:36:05.006Z,3.10
2019-04-04T05:38:34.000Z,3.10
2019-04-04T05:41:03.772Z,3.10
2019-04-04T05:43:37.060Z,3.20
2019-04-04T05:46:05.196Z,3.20
2019-04-04T05:48:34.820Z,3.20
2019-04-04T05:51:04.520Z,3.20
2019-04-04T05:53:35.326Z,3.30
2019-04-04T05:56:06.548Z,3.30
2019-04-04T05:58:36.441Z,3.30
2019-04-04T06:01:07.186Z,3.40
2019-04-04T06:03:36.892Z,3.40
2019-04-04T06:06:06.544Z,3.40
2019-04-04T06:08:39.195Z,3.40
2019-04-04T06:11:07.706Z,3.50
2019-04-04T06:13:37.501Z,3.50
2019-04-04T06:16:07.155Z,3.60
2019-04-04T06:18:36.802Z,3.60
2019-04-04T06:21:07.533Z,3.70
2019-04-04T06:23:37.195Z,3.70
2019-04-04T06:26:07.749Z,3.80
2019-04-04T06:28:37.430Z,3.80
2019-04-04T06:31:07.050Z,3.90
2019-04-04T06:33:36.753Z,4.00
2019-04-04T06:36:06.369Z,4.00
2019-04-04T06:38:35.974Z,4.10
2019-04-04T06:41:05.585Z,4.20
2019-04-04T06:43:35.201Z,4.20
2019-04-04T06:46:05.146Z,4.20
2019-04-04T06:48:36.158Z,4.30
2019-04-04T06:51:05.758Z,4.30
2019-04-04T06:53:35.413Z,4.50
2019-04-04T06:56:05.035Z,4.50
2019-04-04T06:58:34.644Z,4.50
2019-04-04T07:01:04.225Z,4.50
2019-04-04T07:03:33.833Z,4.60
2019-04-04T07:06:03.592Z,4.70
2019-04-04T07:08:33.234Z,4.80
2019-04-04T07:11:04.457Z,4.90
2019-04-04T07:13:42.152Z,5.00
2019-04-04T07:16:08.038Z,5.00
2019-04-04T07:18:36.848Z,5.00
2019-04-04T07:21:06.550Z,5.10
2019-04-04T07:23:36.165Z,5.10
2019-04-04T07:26:05.861Z,5.10
2019-04-04T07:28:35.515Z,5.20
2019-04-04T07:31:05.227Z,5.30
2019-04-04T07:33:34.910Z,5.40
2019-04-04T07:36:04.600Z,5.60
2019-04-04T07:38:35.119Z,5.80
2019-04-04T07:41:06.130Z,5.90
2019-04-04T07:43:39.192Z,5.80
2019-04-04T07:46:16.066Z,5.80
2019-04-04T07:48:39.303Z,5.70
2019-04-04T07:51:08.941Z,5.70
2019-04-04T07:53:38.585Z,5.80
2019-04-04T07:56:09.270Z,6.00
2019-04-04T07:58:38.881Z,6.10
2019-04-04T08:01:08.476Z,6.30
2019-04-04T08:03:38.122Z,6.40
2019-04-04T08:06:07.914Z,6.50
2019-04-04T08:08:37.559Z,6.40
2019-04-04T08:11:07.262Z,6.20
2019-04-04T08:13:36.882Z,6.10
2019-04-04T08:16:06.679Z,6.30
2019-04-04T08:18:36.307Z,6.60
2019-04-04T08:21:05.999Z,6.80
2019-04-04T08:23:35.668Z,7.10
2019-04-04T08:26:05.445Z,7.30
2019-04-04T08:28:35.088Z,7.50
2019-04-04T08:31:04.789Z,7.50
2019-04-04T08:33:34.385Z,7.60
2019-04-04T08:36:06.258Z,7.70
2019-04-04T08:38:35.362Z,7.90
2019-04-04T08:41:05.197Z,7.90
2019-04-04T08:43:34.815Z,7.90
2019-04-04T08:46:04.495Z,8.00
2019-04-04T08:48:34.110Z,8.00
2019-04-04T08:51:03.914Z,8.10
2019-04-04T08:53:39.962Z,8.20
2019-04-04T08:56:05.246Z,8.30
2019-04-04T08:58:34.907Z,8.30
2019-04-04T09:01:05.074Z,8.30
2019-04-04T09:03:34.714Z,8.30
2019-04-04T09:06:04.468Z,8.30
2019-04-04T09:08:34.161Z,8.20
2019-04-04T09:11:04.062Z,8.20
2019-04-04T09:13:33.778Z,8.30
2019-04-04T09:16:03.469Z,8.30
2019-04-04T09:18:33.068Z,8.10
2019-04-04T09:21:02.671Z,7.80
2019-04-04T09:23:32.298Z,7.70
2019-04-04T09:26:05.834Z,7.80
2019-04-04T09:28:34.712Z,7.80
2019-04-04T09:31:04.470Z,7.90
2019-04-04T09:33:34.098Z,7.80
2019-04-04T09:36:03.861Z,8.10
2019-04-04T09:38:33.522Z,8.20
2019-04-04T09:41:03.155Z,8.40
2019-04-04T09:43:32.838Z,8.40
2019-04-04T09:46:02.461Z,8.40
2019-04-04T09:48:32.071Z,8.60
2019-04-04T09:51:01.698Z,8.70
2019-04-04T09:53:31.342Z,8.80
2019-04-04T09:56:00.958Z,8.90
2019-04-04T09:58:30.558Z,9.00
2019-04-04T10:01:00.460Z,9.00
2019-04-04T10:03:30.176Z,9.20
2019-04-04T10:06:08.743Z,9.30
2019-04-04T10:08:38.942Z,9.20
2019-04-04T10:11:08.710Z,9.30
2019-04-04T10:13:41.950Z,9.20
2019-04-04T10:16:11.598Z,9.40
2019-04-04T10:18:41.345Z,9.40
2019-04-04T10:21:12.373Z,9.50
2019-04-04T10:23:42.318Z,9.50
2019-04-04T10:26:11.934Z,9.40
2019-04-04T10:28:41.586Z,9.60
2019-04-04T10:31:11.338Z,9.70
2019-04-04T10:33:42.343Z,9.60
2019-04-04T10:36:12.324Z,9.70
2019-04-04T10:38:41.967Z,9.70
2019-04-04T10:41:11.574Z,9.70
2019-04-04T10:43:41.192Z,9.70
2019-04-04T10:46:10.801Z,9.70
2019-04-04T10:48:40.451Z,9.80
2019-04-04T10:51:10.096Z,10.00
2019-04-04T10:53:39.726Z,10.20
2019-04-04T10:56:09.418Z,10.40
2019-04-04T10:58:39.071Z,10.60
2019-04-04T11:01:08.860Z,10.70
2019-04-04T11:03:38.483Z,10.50
2019-04-04T11:06:08.093Z,10.10
2019-04-04T11:08:37.727Z,10.10
2019-04-04T11:11:07.414Z,10.40
2019-04-04T11:13:37.052Z,10.50
2019-04-04T11:16:06.659Z,10.70
2019-04-04T11:18:36.274Z,10.50
2019-04-04T11:21:06.044Z,10.40
2019-04-04T11:23:35.642Z,10.30
2019-04-04T11:26:05.522Z,10.40
2019-04-04T11:28:35.137Z,10.50
2019-04-04T11:31:05.912Z,10.60
2019-04-04T11:33:35.601Z,10.70
2019-04-04T11:36:05.281Z,10.70
2019-04-04T11:38:34.907Z,10.70
2019-04-04T11:41:04.600Z,10.90
2019-04-04T11:43:34.234Z,10.80
2019-04-04T11:46:03.905Z,10.70
2019-04-04T11:48:33.518Z,10.70
2019-04-04T11:51:03.150Z,10.80
2019-04-04T11:53:32.753Z,11.00
2019-04-04T11:56:02.397Z,11.10
2019-04-04T11:58:32.026Z,11.10
2019-04-04T12:01:04.319Z,11.10
2019-04-04T12:03:33.938Z,11.10
2019-04-04T12:06:03.666Z,11.20
2019-04-04T12:08:33.296Z,11.30
2019-04-04T12:11:03.252Z,11.40
2019-04-04T12:13:32.882Z,11.80
2019-04-04T12:16:02.519Z,12.10
2019-04-04T12:18:32.157Z,12.30
2019-04-04T12:21:01.767Z,12.30
2019-04-04T12:23:31.377Z,12.30
2019-04-04T12:26:01.018Z,12.20
2019-04-04T12:28:30.642Z,12.00
2019-04-04T12:31:00.450Z,12.00
2019-04-04T12:33:30.058Z,12.00
2019-04-04T12:35:59.722Z,12.00
2019-04-04T12:38:29.341Z,12.00
2019-04-04T12:40:58.954Z,12.00
2019-04-04T12:43:28.571Z,12.20
2019-04-04T12:45:58.254Z,12.30
2019-04-04T12:48:27.862Z,12.20
2019-04-04T12:50:58.437Z,12.00
2019-04-04T12:53:28.033Z,12.00
2019-04-04T12:55:57.634Z,12.10
2019-04-04T12:58:28.218Z,12.00
2019-04-04T13:00:57.854Z,12.00
2019-04-04T13:03:27.470Z,12.00
2019-04-04T13:05:57.078Z,11.90
2019-04-04T13:08:26.680Z,11.70
2019-04-04T13:10:56.281Z,11.70
2019-04-04T13:13:25.897Z,11.70
2019-04-04T13:15:55.521Z,11.70
2019-04-04T13:18:25.122Z,11.70
2019-04-04T13:20:54.834Z,11.80
2019-04-04T13:23:24.481Z,12.10
2019-04-04T13:25:55.152Z,12.10
2019-04-04T13:28:25.062Z,12.00
2019-04-04T13:30:54.705Z,12.20
2019-04-04T13:33:24.299Z,12.40
2019-04-04T13:35:53.975Z,12.40
2019-04-04T13:38:23.562Z,12.30
2019-04-04T13:40:53.318Z,12.30
2019-04-04T13:43:23.914Z,12.40
2019-04-04T13:45:53.544Z,12.70
2019-04-04T13:48:23.246Z,12.90
2019-04-04T13:50:53.642Z,13.00
2019-04-04T13:53:25.439Z,13.00
2019-04-04T13:55:56.494Z,13.00
2019-04-04T13:58:26.006Z,12.90
2019-04-04T14:00:55.625Z,12.90
2019-04-04T14:03:25.257Z,13.00
2019-04-04T14:05:54.912Z,12.70
2019-04-04T14:08:24.570Z,12.40
2019-04-04T14:10:58.380Z,12.40
2019-04-04T14:13:26.237Z,12.50
2019-04-04T14:15:56.157Z,12.70
2019-04-04T14:18:38.236Z,12.90
2019-04-04T14:21:03.999Z,12.90
2019-04-04T14:23:28.793Z,12.80
2019-04-04T14:25:59.967Z,12.80
2019-04-04T14:28:29.793Z,12.60
2019-04-04T14:30:59.631Z,12.40
2019-04-04T14:33:29.246Z,12.30
2019-04-04T14:35:58.858Z,12.30
2019-04-04T14:38:28.491Z,12.20
2019-04-04T14:41:10.216Z,12.20
2019-04-04T14:43:30.059Z,12.30
2019-04-04T14:46:00.289Z,12.50
2019-04-04T14:48:30.009Z,12.60
2019-04-04T14:50:59.715Z,12.70
2019-04-04T14:53:29.706Z,12.60
2019-04-04T14:56:01.255Z,12.50
2019-04-04T14:58:32.285Z,12.50
2019-04-04T15:01:02.045Z,12.50
2019-04-04T15:03:31.939Z,12.30
2019-04-04T15:06:02.246Z,12.10
2019-04-04T15:08:32.529Z,12.00
2019-04-04T15:11:02.727Z,11.80
2019-04-04T15:13:32.621Z,11.50
2019-04-04T15:16:12.877Z,11.30
2019-04-04T15:18:43.751Z,11.30
2019-04-04T15:21:13.762Z,11.20
2019-04-04T15:23:44.831Z,11.10
2019-04-04T15:26:15.064Z,11.10
2019-04-04T15:28:45.027Z,10.90
2019-04-04T15:31:15.289Z,10.90
2019-04-04T15:33:45.753Z,10.90
2019-04-04T15:36:15.971Z,10.90
2019-04-04T15:38:46.049Z,10.70
2019-04-04T15:41:17.137Z,10.50
2019-04-04T15:43:47.972Z,10.50
2019-04-04T15:46:18.225Z,10.30
2019-04-04T15:48:48.084Z,10.20
2019-04-04T15:51:17.890Z,10.20
2019-04-04T15:53:47.705Z,10.20
2019-04-04T15:56:17.827Z,10.30
2019-04-04T15:58:47.476Z,10.40
2019-04-04T16:01:17.277Z,10.60
2019-04-04T16:03:46.985Z,10.70
2019-04-04T16:06:16.791Z,10.90
2019-04-04T16:08:46.957Z,11.00
2019-04-04T16:11:16.986Z,11.00
2019-04-04T16:13:46.657Z,10.90
2019-04-04T16:16:16.323Z,10.80
2019-04-04T16:18:45.993Z,10.80
2019-04-04T16:21:15.701Z,10.70
2019-04-04T16:23:45.449Z,10.60
2019-04-04T16:26:15.218Z,10.40
2019-04-04T16:28:44.949Z,10.40
2019-04-04T16:31:14.722Z,10.50
2019-04-04T16:33:44.912Z,10.40
2019-04-04T16:36:14.719Z,10.50
2019-04-04T16:38:45.607Z,10.60
2019-04-04T16:41:15.745Z,10.60
2019-04-04T16:43:46.172Z,10.50
2019-04-04T16:46:26.927Z,10.40
2019-04-04T16:49:04.166Z,10.30
2019-04-04T16:51:41.302Z,10.30
2019-04-04T16:54:21.928Z,10.20
2019-04-04T16:57:00.054Z,10.20
2019-04-04T16:59:36.717Z,10.10
2019-04-04T17:02:15.167Z,10.00
2019-04-04T17:04:57.447Z,10.00
2019-04-04T17:07:34.067Z,10.10
2019-04-04T17:10:14.932Z,10.10
2019-04-04T17:12:45.576Z,10.00
2019-04-04T17:15:16.471Z,10.00
2019-04-04T17:17:51.645Z,10.00
2019-04-04T17:20:21.623Z,10.00
2019-04-04T17:22:53.178Z,10.00
2019-04-04T17:25:25.287Z,10.00
2019-04-04T17:27:59.115Z,9.90
2019-04-04T17:30:39.114Z,9.90
2019-04-04T17:33:18.451Z,9.90
2019-04-04T17:35:48.745Z,9.80
2019-04-04T17:38:22.881Z,9.90
2019-04-04T17:40:53.069Z,9.80
2019-04-04T17:43:25.291Z,9.90
2019-04-04T17:45:57.755Z,9.80
2019-04-04T17:48:38.945Z,9.90
2019-04-04T17:51:10.180Z,9.90
2019-04-04T17:53:40.254Z,9.80
2019-04-04T17:56:10.324Z,9.80
2019-04-04T17:58:40.451Z,9.80
2019-04-04T18:01:12.157Z,9.70
2019-04-04T18:03:42.111Z,9.70
2019-04-04T18:06:11.797Z,9.60
2019-04-04T18:08:41.543Z,9.60
2019-04-04T18:11:11.197Z,9.60
2019-04-04T18:13:40.938Z,9.50
2019-04-04T18:16:10.625Z,9.50
2019-04-04T18:18:40.266Z,9.40
2019-04-04T18:21:10.182Z,9.40
2019-04-04T18:23:39.850Z,9.30
2019-04-04T18:26:09.696Z,9.30
2019-04-04T18:28:39.762Z,9.20
2019-04-04T18:31:09.650Z,9.10
2019-04-04T18:33:39.381Z,9.10
2019-04-04T18:36:09.345Z,9.10
2019-04-04T18:38:39.088Z,9.00
2019-04-04T18:41:09.997Z,9.00
2019-04-04T18:43:39.970Z,9.00
2019-04-04T18:46:09.910Z,9.00
2019-04-04T18:48:39.847Z,8.90
2019-04-04T18:51:09.615Z,8.90
2019-04-04T18:53:39.608Z,8.90
2019-04-04T18:56:09.741Z,8.80
2019-04-04T18:58:39.717Z,8.80
2019-04-04T19:01:09.708Z,8.80
2019-04-04T19:03:39.513Z,8.80
2019-04-04T19:06:11.388Z,8.70
2019-04-04T19:08:41.439Z,8.70
2019-04-04T19:11:11.410Z,8.70
2019-04-04T19:13:44.422Z,8.70
2019-04-04T19:16:12.815Z,8.60
2019-04-04T19:18:42.679Z,8.50
2019-04-04T19:21:12.628Z,8.50
2019-04-04T19:23:48.973Z,8.50
2019-04-04T19:26:14.234Z,8.50
2019-04-04T19:28:44.319Z,8.40
2019-04-04T19:31:15.465Z,8.40
2019-04-04T19:33:46.963Z,8.40
2019-04-04T19:36:16.773Z,8.30
2019-04-04T19:38:46.914Z,8.40
2019-04-04T19:41:16.774Z,8.40
2019-04-04T19:43:46.691Z,8.40
2019-04-04T19:46:16.514Z,8.30
2019-04-04T19:48:48.344Z,8.30
2019-04-04T19:51:18.203Z,8.40
2019-04-04T19:53:49.212Z,8.40
2019-04-04T19:56:19.082Z,8.30
2019-04-04T19:58:48.860Z,8.30
2019-04-04T20:01:18.464Z,8.30
2019-04-04T20:03:48.071Z,8.20
2019-04-04T20:06:17.724Z,8.20
2019-04-04T20:08:50.892Z,8.10
2019-04-04T20:11:18.838Z,8.10
2019-04-04T20:13:48.480Z,8.10
2019-04-04T20:16:18.077Z,8.10
2019-04-04T20:18:47.718Z,8.10
2019-04-04T20:21:17.343Z,8.00
2019-04-04T20:23:46.966Z,8.00
2019-04-04T20:26:16.575Z,8.00
2019-04-04T20:28:46.222Z,8.00
2019-04-04T20:31:15.842Z,7.90
2019-04-04T20:33:45.460Z,7.90
2019-04-04T20:36:15.056Z,7.90
2019-04-04T20:38:44.807Z,7.90
2019-04-04T20:41:16.351Z,7.90
2019-04-04T20:43:46.895Z,7.80
2019-04-04T20:46:17.621Z,7.80
2019-04-04T20:48:47.238Z,7.70
2019-04-04T20:51:16.856Z,7.60
2019-04-04T20:53:46.540Z,7.60
2019-04-04T20:56:16.389Z,7.60
2019-04-04T20:58:46.038Z,7.60
2019-04-04T21:01:15.666Z,7.50
2019-04-04T21:03:45.298Z,7.50
2019-04-04T21:06:14.926Z,7.50
2019-04-04T21:08:44.537Z,7.50
2019-04-04T21:11:14.158Z,7.40
2019-04-04T21:13:55.473Z,7.40
2019-04-04T21:16:15.106Z,7.40
2019-04-04T21:18:44.758Z,7.30
2019-04-04T21:21:14.447Z,7.30
2019-04-04T21:23:44.181Z,7.30
2019-04-04T21:26:13.787Z,7.30
2019-04-04T21:28:43.520Z,7.30
2019-04-04T21:31:13.122Z,7.20
2019-04-04T21:33:42.735Z,7.20
2019-04-04T21:36:12.355Z,7.20
2019-04-04T21:38:41.975Z,7.20
2019-04-04T21:41:11.590Z,7.10
2019-04-04T21:43:42.298Z,7.10
2019-04-04T21:46:11.917Z,7.10
2019-04-04T21:48:41.544Z,7.10
2019-04-04T21:51:11.146Z,7.00
2019-04-04T21:53:40.752Z,7.00
2019-04-04T21:56:10.382Z,7.00
2019-04-04T21:58:40.011Z,6.90
2019-04-04T22:01:10.002Z,6.90
2019-04-04T22:03:39.618Z,6.80
2019-04-04T22:06:09.288Z,6.80
2019-04-04T22:08:38.984Z,6.80
2019-04-04T22:11:08.586Z,6.70
2019-04-04T22:13:38.206Z,6.70
2019-04-04T22:16:07.822Z,6.60
2019-04-04T22:18:37.516Z,6.60
2019-04-04T22:21:07.208Z,6.60
2019-04-04T22:23:37.005Z,6.50
2019-04-04T22:26:06.650Z,6.50
2019-04-04T22:28:36.266Z,6.50
2019-04-04T22:31:05.870Z,6.40
2019-04-04T22:33:35.574Z,6.40
2019-04-04T22:36:05.310Z,6.30
2019-04-04T22:38:34.933Z,6.30
2019-04-04T22:41:04.610Z,6.30
2019-04-04T22:43:34.289Z,6.30
2019-04-04T22:46:04.004Z,6.20
2019-04-04T22:48:33.633Z,6.20
2019-04-04T22:51:03.277Z,6.20
2019-04-04T22:53:32.880Z,6.10
2019-04-04T22:56:02.522Z,6.10
2019-04-04T22:58:32.136Z,6.10
2019-04-04T23:01:01.762Z,6.10
2019-04-04T23:03:31.538Z,6.10
2019-04-04T23:06:01.137Z,6.10
2019-04-04T23:08:30.766Z,6.10
2019-04-04T23:11:00.369Z,6.10
2019-04-04T23:13:30.027Z,6.00
2019-04-04T23:15:59.646Z,6.00
2019-04-04T23:18:29.285Z,6.00
2019-04-04T23:20:58.953Z,5.90
2019-04-04T23:23:28.565Z,6.00
2019-04-04T23:25:58.178Z,6.00
2019-04-04T23:28:27.801Z,6.00
2019-04-04T23:30:57.441Z,6.00
2019-04-04T23:33:27.078Z,6.00
2019-04-04T23:35:56.745Z,6.00
2019-04-04T23:38:26.369Z,6.00
2019-04-04T23:40:55.959Z,5.90
2019-04-04T23:43:25.582Z,5.90
2019-04-04T23:45:55.266Z,5.80
2019-04-04T23:48:24.905Z,5.80
2019-04-04T23:50:54.494Z,5.80
2019-04-04T23:53:24.132Z,5.80
2019-04-04T23:55:53.741Z,5.70
2019-04-04T23:58:23.344Z,5.80
